Batouri Airport


Codes: FKKI/OUR
Name: Batouri Airport
City: Batouri
Country: Cameroon
Elevation: 2152 ft.

Photos at Batouri Airport


   Photos courtesy of SpottingLog. You can add your own sightings and photos by signing up for a free trial today.



No photos found.

Weather at Batouri Airport


Time (UTC)DescriptionTempratureWindCloud coverageVisibilityPressureHumidity
23-May-2024 21:00Broken Clouds23°C2 mph, W68%10000m1011hPa86%
24-May-2024 00:00Light Rain21°C2 mph, SW61%10000m1012hPa91%
24-May-2024 03:00Light Rain20°C2 mph, SW95%10000m1012hPa97%
24-May-2024 06:00Overcast Clouds21°C2 mph, W98%10000m1014hPa97%
24-May-2024 09:00Overcast Clouds27°C4 mph, NW96%10000m1014hPa66%
24-May-2024 12:00Overcast Clouds32°C2 mph, N91%10000m1010hPa44%
24-May-2024 15:00Light Rain29°C2 mph, NE86%10000m1009hPa59%
24-May-2024 18:00Light Rain22°C4 mph, SW66%10000m1011hPa96%
24-May-2024 21:00Light Rain21°C2 mph, S62%10000m1014hPa98%
25-May-2024 00:00Light Rain20°C2 mph, SW68%10000m1014hPa99%
25-May-2024 03:00Light Rain20°C2 mph, W87%10000m1014hPa99%
25-May-2024 06:00Light Rain21°C2 mph, W89%10000m1015hPa98%
25-May-2024 09:00Overcast Clouds25°C4 mph, SW99%10000m1016hPa78%
25-May-2024 12:00Light Rain28°C4 mph, W96%10000m1013hPa66%
25-May-2024 15:00Light Rain25°C2 mph, S90%10000m1011hPa90%
25-May-2024 18:00Light Rain22°C0 mph, S93%10000m1012hPa96%
25-May-2024 21:00Broken Clouds21°C2 mph, SW56%10000m1014hPa97%
26-May-2024 00:00Broken Clouds21°C2 mph, SW52%10000m1014hPa98%
26-May-2024 03:00Broken Clouds20°C2 mph, W67%10000m1014hPa99%
26-May-2024 06:00Broken Clouds21°C2 mph, W74%10000m1015hPa95%
26-May-2024 09:00Broken Clouds28°C4 mph, W59%10000m1015hPa62%
26-May-2024 12:00Scattered Clouds34°C0 mph, W49%10000m1011hPa40%
26-May-2024 15:00Overcast Clouds29°C4 mph, NE90%10000m1010hPa58%
26-May-2024 18:00Overcast Clouds25°C2 mph, N89%10000m1011hPa74%
26-May-2024 21:00Overcast Clouds23°C2 mph, SW97%10000m1014hPa84%
27-May-2024 00:00Light Rain21°C2 mph, NW98%10000m1014hPa98%
27-May-2024 03:00Light Rain20°C2 mph, W93%10000m1013hPa98%
27-May-2024 06:00Broken Clouds21°C2 mph, NW71%10000m1015hPa96%
27-May-2024 09:00Clear Sky29°C4 mph, W4%10000m1015hPa58%
27-May-2024 12:00Clear Sky34°C2 mph, NE3%10000m1011hPa40%
27-May-2024 15:00Few Clouds33°C2 mph, E16%10000m1008hPa40%
27-May-2024 18:00Few Clouds26°C2 mph, SW17%10000m1010hPa64%
27-May-2024 21:00Light Rain21°C2 mph, SW82%10000m1013hPa94%
28-May-2024 00:00Light Rain21°C2 mph, NW87%10000m1013hPa98%
28-May-2024 03:00Overcast Clouds21°C2 mph, W98%10000m1013hPa99%
28-May-2024 06:00Overcast Clouds22°C2 mph, NW96%10000m1014hPa95%
28-May-2024 09:00Overcast Clouds30°C4 mph, SW85%10000m1014hPa55%
28-May-2024 12:00Broken Clouds36°C2 mph, SE72%10000m1010hPa36%
28-May-2024 15:00Broken Clouds34°C4 mph, E77%10000m1007hPa38%
28-May-2024 18:00Broken Clouds27°C2 mph, SE84%10000m1010hPa64%